Terminal Aerodrome Forecast
Issued by NWS

Home | Current Version | Previous Version | Text Only | Print | Product List | Glossary On
Versions: 1 2 3 4 5 6 7 8 9 10 11 12
000
FTUS46 KLOX 150500
TAFBUR
TAF
KBUR 150524Z 1506/1606 VRB03KT P6SM SKC
     FM152100 17009KT P6SM SKC
     FM160100 28008KT P6SM SKC
     FM160500 VRB03KT P6SM SKC=

USA.gov is the U.S. government's official web portal to all federal, state and local government web resources and services.